Vernon, TX (76385)

1:24 AM CDT on September 16, 2014 (GMT -0500)
Vernon | Change Station
CLOSE
Current Station
Airport
Location: Vernon,
Elevation: 1266 ft
Nearby Weather Stations
4.0 Earthquake: Guthrie, Oklahoma (10 hours ago)  

Elev 1266 ft 34.23 °N, 99.28 °W | Updated 9 minutes ago

Overcast
Overcast
77 °F
Feels Like 77 °F
N
6
Wind Variable Wind from SSE

Today
High -- | Low -- °F
--% Chance of Precip.
Yesterday
High -- | Low -- °F
Precip. -- in
7:20 AM 7:42 PM
Waning Gibbous, 48% visible
Pressure 30.14 in
Visibility 10.0 miles
Clouds Mostly Cloudy 10000 ft
Scattered Clouds 12000 ft
Dew Point 67 °F
Humidity 70%
Rainfall 0.00 in
Snow Depth Not available.
UV 0 out of 12
Pollen 9.70 out of 12
Air Quality Not available.
Flu Activity Not available.
METAR KF05 160615Z AUTO 15005KT 10SM BKN100 SCT120 25/19 A3014 RMK AO1 T02520193

More Conditions Fewer Conditions

Pressure 30.14 in
Visibility 10.0 miles
Clouds Mostly Cloudy 10000 ft
Scattered Clouds 12000 ft
Dew Point 67 °F
Humidity 70%
Rainfall 0.00 in
Snow Depth Not available.
UV 0 out of 12
Pollen 9.70 out of 12
Air Quality Not available.
Flu Activity Not available.
METAR KF05 160615Z AUTO 15005KT 10SM BKN100 SCT120 25/19 A3014 RMK AO1 T02520193

More Conditions Fewer Conditions

10-Day Weather Forecast

Almanac

Astronomy

Sep. 16, 2014 Rise Set
Actual Time 7:20 AM CDT 7:42 PM CDT
Civil Twilight 6:55 AM CDT 8:07 PM CDT
Nautical Twilight 6:26 AM CDT 8:36 PM CDT
Astronomical Twilight 5:56 AM CDT 9:06 PM CDT
Moon 12:43 AM CDT 2:55 PM CDT
Length of Visible Light 13h 11m
Length of Day
12h 21m
Tomorrow will be 2m 7s shorter.
Waning Gibbous, 48% of the Moon is Illuminated
Today
Waning Gibbous
Sep 24
New
Oct 1
First Quarter
Oct 8
Full
Oct 15
Last Quarter

Today's Extremes

State Highs State Lows

Community

WunderPhotos

Upload Photos

1,753,699 photos uploaded!

Nearby

Snow Depth

Station Depth Elevation
No new snow has been reported.

Earthquake Activity

City Distance Mag. Time & Date
Guthrie, Oklahoma 155 miles 2.7 4:00 PM CDT
2014-09-15
Guthrie, Oklahoma 155 miles 3.2 3:14 PM CDT
2014-09-15
Guthrie, Oklahoma 154 miles 4.0 3:08 PM CDT
2014-09-15
Guthrie, Oklahoma 155 miles 3.0 7:11 PM CDT
2014-09-14
Minimum magnitude displayed is 2.5.

Coastal Water Temperatures

Place Temperature
No Stations Reporting

Nearby Weather Stations